Bitely, Michigan
Current Conditions -  °F | °C
As of 8:55 AM on Monday 24 Nov 2014 (Local Time) from KRQB Reporting Station
Haze Haze  
Wind Chill: 43°   Ceiling: 400
Heat Index: 47°   Visibility: 5mi
Dew Point: 47°   Wind: 7mph
Humidity: 100%   Direction: 230°SW
Pressure: 29.03"   Gusts: 18mph
Location:  43.75°N, 85.86°W
Report Text: KRQB 241355Z AUTO 23006G16KT 5SM BR OVC004 08/08 A2903 RMK AO2 P0001 T00820082
Loading
Personal Weather Stations






























Interactive Weather Map New forecast layout! Learn more

10-Day Weather Forecast

Advertisements
Track Severe Weather on mobile